sensor_id;sensor_type;location;lat;lon;timestamp;P1;durP1;ratioP1;P2;durP2;ratioP2
24389;SDS011;12510;56.468;-3.004;2023-04-04T00:00:26;5.63;;;4.20;;
24389;SDS011;12510;56.468;-3.004;2023-04-04T00:02:52;11.77;;;5.75;;
24389;SDS011;12510;56.468;-3.004;2023-04-04T00:05:19;12.32;;;6.25;;
24389;SDS011;12510;56.468;-3.004;2023-04-04T00:07:45;12.75;;;5.45;;
24389;SDS011;12510;56.468;-3.004;2023-04-04T00:10:12;12.60;;;6.10;;
24389;SDS011;12510;56.468;-3.004;2023-04-04T00:12:39;12.57;;;6.65;;
24389;SDS011;12510;56.468;-3.004;2023-04-04T00:15:05;10.65;;;5.45;;
24389;SDS011;12510;56.468;-3.004;2023-04-04T00:17:32;12.23;;;6.10;;
24389;SDS011;12510;56.468;-3.004;2023-04-04T00:19:58;8.07;;;4.75;;
24389;SDS011;12510;56.468;-3.004;2023-04-04T00:22:25;11.18;;;4.95;;
24389;SDS011;12510;56.468;-3.004;2023-04-04T00:24:51;14.82;;;5.20;;
24389;SDS011;12510;56.468;-3.004;2023-04-04T00:31:20;9.82;;;4.93;;
24389;SDS011;12510;56.468;-3.004;2023-04-04T00:41:20;8.25;;;4.70;;
24389;SDS011;12510;56.468;-3.004;2023-04-04T00:43:47;12.63;;;5.38;;
24389;SDS011;12510;56.468;-3.004;2023-04-04T00:46:13;10.25;;;4.82;;
24389;SDS011;12510;56.468;-3.004;2023-04-04T02:29:09;7.45;;;3.53;;
24389;SDS011;12510;56.468;-3.004;2023-04-04T02:31:37;4.45;;;3.30;;
24389;SDS011;12510;56.468;-3.004;2023-04-04T02:38:37;7.88;;;3.80;;
24389;SDS011;12510;56.468;-3.004;2023-04-04T02:41:05;6.32;;;3.47;;
24389;SDS011;12510;56.468;-3.004;2023-04-04T02:43:32;8.63;;;3.97;;
24389;SDS011;12510;56.468;-3.004;2023-04-04T02:46:04;6.75;;;4.13;;
24389;SDS011;12510;56.468;-3.004;2023-04-04T02:48:31;8.25;;;3.90;;
24389;SDS011;12510;56.468;-3.004;2023-04-04T02:51:01;10.43;;;4.10;;
24389;SDS011;12510;56.468;-3.004;2023-04-04T02:53:28;5.68;;;3.83;;
24389;SDS011;12510;56.468;-3.004;2023-04-04T02:56:01;7.43;;;3.85;;
24389;SDS011;12510;56.468;-3.004;2023-04-04T02:58:32;5.85;;;3.53;;
24389;SDS011;12510;56.468;-3.004;2023-04-04T03:00:59;12.90;;;4.25;;
24389;SDS011;12510;56.468;-3.004;2023-04-04T03:03:29;8.60;;;4.18;;
24389;SDS011;12510;56.468;-3.004;2023-04-04T03:05:57;8.65;;;4.57;;
24389;SDS011;12510;56.468;-3.004;2023-04-04T03:08:24;7.03;;;4.72;;
24389;SDS011;12510;56.468;-3.004;2023-04-04T03:10:56;5.85;;;3.60;;
24389;SDS011;12510;56.468;-3.004;2023-04-04T03:13:22;7.55;;;4.35;;
24389;SDS011;12510;56.468;-3.004;2023-04-04T03:15:49;4.82;;;3.85;;
24389;SDS011;12510;56.468;-3.004;2023-04-04T03:18:16;7.55;;;4.07;;
24389;SDS011;12510;56.468;-3.004;2023-04-04T03:20:42;6.88;;;3.88;;
24389;SDS011;12510;56.468;-3.004;2023-04-04T03:23:09;9.23;;;4.22;;
24389;SDS011;12510;56.468;-3.004;2023-04-04T03:25:36;6.20;;;3.65;;
24389;SDS011;12510;56.468;-3.004;2023-04-04T03:28:08;7.70;;;4.38;;
24389;SDS011;12510;56.468;-3.004;2023-04-04T03:30:39;7.15;;;3.75;;
24389;SDS011;12510;56.468;-3.004;2023-04-04T03:36:54;5.47;;;3.67;;
24389;SDS011;12510;56.468;-3.004;2023-04-04T03:39:27;6.10;;;4.13;;
24389;SDS011;12510;56.468;-3.004;2023-04-04T03:41:55;7.15;;;3.53;;
24389;SDS011;12510;56.468;-3.004;2023-04-04T03:44:22;8.02;;;4.03;;
24389;SDS011;12510;56.468;-3.004;2023-04-04T03:46:49;3.90;;;3.33;;
24389;SDS011;12510;56.468;-3.004;2023-04-04T03:49:17;6.55;;;3.30;;
24389;SDS011;12510;56.468;-3.004;2023-04-04T03:51:44;6.57;;;3.88;;
24389;SDS011;12510;56.468;-3.004;2023-04-04T03:54:10;7.43;;;3.35;;
24389;SDS011;12510;56.468;-3.004;2023-04-04T03:56:36;8.98;;;4.80;;
24389;SDS011;12510;56.468;-3.004;2023-04-04T03:59:04;12.55;;;4.50;;
24389;SDS011;12510;56.468;-3.004;2023-04-04T04:01:31;6.35;;;4.25;;
24389;SDS011;12510;56.468;-3.004;2023-04-04T04:03:58;6.53;;;4.10;;
24389;SDS011;12510;56.468;-3.004;2023-04-04T04:06:26;6.93;;;4.38;;
24389;SDS011;12510;56.468;-3.004;2023-04-04T04:08:52;9.13;;;4.38;;
24389;SDS011;12510;56.468;-3.004;2023-04-04T04:11:19;6.45;;;4.32;;
24389;SDS011;12510;56.468;-3.004;2023-04-04T04:21:32;8.25;;;4.05;;
24389;SDS011;12510;56.468;-3.004;2023-04-04T04:24:02;6.53;;;4.30;;
24389;SDS011;12510;56.468;-3.004;2023-04-04T04:26:35;5.72;;;4.10;;
24389;SDS011;12510;56.468;-3.004;2023-04-04T04:29:11;8.63;;;5.03;;
24389;SDS011;12510;56.468;-3.004;2023-04-04T04:31:42;10.93;;;4.15;;
24389;SDS011;12510;56.468;-3.004;2023-04-04T04:34:13;11.98;;;5.22;;
24389;SDS011;12510;56.468;-3.004;2023-04-04T04:36:46;6.45;;;4.43;;
24389;SDS011;12510;56.468;-3.004;2023-04-04T04:39:28;7.45;;;3.60;;
24389;SDS011;12510;56.468;-3.004;2023-04-04T04:42:18;6.32;;;3.90;;
24389;SDS011;12510;56.468;-3.004;2023-04-04T04:44:55;6.13;;;3.97;;
24389;SDS011;12510;56.468;-3.004;2023-04-04T04:47:29;7.55;;;3.72;;
24389;SDS011;12510;56.468;-3.004;2023-04-04T04:50:03;6.82;;;4.35;;
24389;SDS011;12510;56.468;-3.004;2023-04-04T04:52:38;6.38;;;3.65;;
24389;SDS011;12510;56.468;-3.004;2023-04-04T04:55:05;5.47;;;3.50;;
24389;SDS011;12510;56.468;-3.004;2023-04-04T04:57:34;4.97;;;3.65;;
24389;SDS011;12510;56.468;-3.004;2023-04-04T05:00:06;8.48;;;4.32;;
24389;SDS011;12510;56.468;-3.004;2023-04-04T05:02:32;7.28;;;4.78;;
24389;SDS011;12510;56.468;-3.004;2023-04-04T05:04:59;6.47;;;4.20;;
24389;SDS011;12510;56.468;-3.004;2023-04-04T05:07:27;7.50;;;4.35;;
24389;SDS011;12510;56.468;-3.004;2023-04-04T05:09:53;5.70;;;3.90;;
24389;SDS011;12510;56.468;-3.004;2023-04-04T05:12:21;8.57;;;5.07;;
24389;SDS011;12510;56.468;-3.004;2023-04-04T05:14:50;4.73;;;3.57;;
24389;SDS011;12510;56.468;-3.004;2023-04-04T05:17:17;6.70;;;4.03;;
24389;SDS011;12510;56.468;-3.004;2023-04-04T05:19:44;10.13;;;4.20;;
24389;SDS011;12510;56.468;-3.004;2023-04-04T05:22:15;6.72;;;4.35;;
24389;SDS011;12510;56.468;-3.004;2023-04-04T05:24:46;6.88;;;5.00;;
24389;SDS011;12510;56.468;-3.004;2023-04-04T05:29:47;4.93;;;4.15;;
24389;SDS011;12510;56.468;-3.004;2023-04-04T05:32:14;15.13;;;5.63;;
24389;SDS011;12510;56.468;-3.004;2023-04-04T05:34:45;13.10;;;5.43;;
24389;SDS011;12510;56.468;-3.004;2023-04-04T05:37:17;10.02;;;4.70;;
24389;SDS011;12510;56.468;-3.004;2023-04-04T05:39:47;11.35;;;4.13;;
24389;SDS011;12510;56.468;-3.004;2023-04-04T05:42:14;5.85;;;4.10;;
24389;SDS011;12510;56.468;-3.004;2023-04-04T07:06:52;6.90;;;4.28;;
24389;SDS011;12510;56.468;-3.004;2023-04-04T07:09:19;5.53;;;4.07;;
24389;SDS011;12510;56.468;-3.004;2023-04-04T07:11:46;8.38;;;5.05;;
24389;SDS011;12510;56.468;-3.004;2023-04-04T07:14:12;7.15;;;4.75;;
24389;SDS011;12510;56.468;-3.004;2023-04-04T07:16:39;7.65;;;4.88;;
24389;SDS011;12510;56.468;-3.004;2023-04-04T07:19:05;5.63;;;3.92;;
24389;SDS011;12510;56.468;-3.004;2023-04-04T07:21:32;9.07;;;4.85;;
24389;SDS011;12510;56.468;-3.004;2023-04-04T07:23:58;9.55;;;5.20;;
24389;SDS011;12510;56.468;-3.004;2023-04-04T07:26:27;6.85;;;4.80;;
24389;SDS011;12510;56.468;-3.004;2023-04-04T07:28:53;6.63;;;4.63;;
24389;SDS011;12510;56.468;-3.004;2023-04-04T07:31:20;5.95;;;5.22;;
24389;SDS011;12510;56.468;-3.004;2023-04-04T07:33:46;5.63;;;4.82;;
24389;SDS011;12510;56.468;-3.004;2023-04-04T07:36:13;7.60;;;4.63;;
24389;SDS011;12510;56.468;-3.004;2023-04-04T07:38:39;4.72;;;3.97;;
24389;SDS011;12510;56.468;-3.004;2023-04-04T07:41:06;6.57;;;4.05;;
24389;SDS011;12510;56.468;-3.004;2023-04-04T07:43:32;5.32;;;4.07;;
24389;SDS011;12510;56.468;-3.004;2023-04-04T07:45:59;5.80;;;3.83;;
24389;SDS011;12510;56.468;-3.004;2023-04-04T07:48:25;4.93;;;3.85;;
24389;SDS011;12510;56.468;-3.004;2023-04-04T07:51:11;5.72;;;3.92;;
24389;SDS011;12510;56.468;-3.004;2023-04-04T07:53:37;10.07;;;4.00;;
24389;SDS011;12510;56.468;-3.004;2023-04-04T07:56:24;9.73;;;4.13;;
24389;SDS011;12510;56.468;-3.004;2023-04-04T07:59:09;17.05;;;4.57;;
24389;SDS011;12510;56.468;-3.004;2023-04-04T08:01:36;19.25;;;5.47;;
24389;SDS011;12510;56.468;-3.004;2023-04-04T08:04:02;6.40;;;3.65;;
24389;SDS011;12510;56.468;-3.004;2023-04-04T08:06:30;4.75;;;3.05;;
24389;SDS011;12510;56.468;-3.004;2023-04-04T08:08:56;14.77;;;5.25;;
24389;SDS011;12510;56.468;-3.004;2023-04-04T08:11:23;12.05;;;4.70;;
24389;SDS011;12510;56.468;-3.004;2023-04-04T08:13:49;10.23;;;3.78;;
24389;SDS011;12510;56.468;-3.004;2023-04-04T08:16:16;5.95;;;4.18;;
24389;SDS011;12510;56.468;-3.004;2023-04-04T08:18:43;19.30;;;6.07;;
24389;SDS011;12510;56.468;-3.004;2023-04-04T08:21:09;7.28;;;4.28;;
24389;SDS011;12510;56.468;-3.004;2023-04-04T08:23:35;12.70;;;4.57;;
24389;SDS011;12510;56.468;-3.004;2023-04-04T08:26:02;24.08;;;6.75;;
24389;SDS011;12510;56.468;-3.004;2023-04-04T08:28:29;19.77;;;6.20;;
24389;SDS011;12510;56.468;-3.004;2023-04-04T08:30:55;8.48;;;4.43;;
24389;SDS011;12510;56.468;-3.004;2023-04-04T08:33:21;26.73;;;7.40;;
24389;SDS011;12510;56.468;-3.004;2023-04-04T08:35:51;24.52;;;6.35;;
24389;SDS011;12510;56.468;-3.004;2023-04-04T08:38:18;11.48;;;5.15;;
24389;SDS011;12510;56.468;-3.004;2023-04-04T08:40:45;14.05;;;4.93;;
24389;SDS011;12510;56.468;-3.004;2023-04-04T08:43:13;6.68;;;4.07;;
24389;SDS011;12510;56.468;-3.004;2023-04-04T08:45:41;34.22;;;7.47;;
24389;SDS011;12510;56.468;-3.004;2023-04-04T08:48:10;9.13;;;4.77;;
24389;SDS011;12510;56.468;-3.004;2023-04-04T08:50:40;9.77;;;4.70;;
24389;SDS011;12510;56.468;-3.004;2023-04-04T08:53:10;19.75;;;6.85;;
24389;SDS011;12510;56.468;-3.004;2023-04-04T08:55:37;8.90;;;5.10;;
24389;SDS011;12510;56.468;-3.004;2023-04-04T08:58:04;9.45;;;4.68;;
24389;SDS011;12510;56.468;-3.004;2023-04-04T09:00:30;11.55;;;6.10;;
24389;SDS011;12510;56.468;-3.004;2023-04-04T09:05:47;16.27;;;6.55;;
24389;SDS011;12510;56.468;-3.004;2023-04-04T09:08:15;9.48;;;4.88;;
24389;SDS011;12510;56.468;-3.004;2023-04-04T09:10:43;9.00;;;4.90;;
24389;SDS011;12510;56.468;-3.004;2023-04-04T09:13:29;9.73;;;4.72;;
24389;SDS011;12510;56.468;-3.004;2023-04-04T09:15:55;7.80;;;5.32;;
24389;SDS011;12510;56.468;-3.004;2023-04-04T09:18:23;21.27;;;7.93;;
24389;SDS011;12510;56.468;-3.004;2023-04-04T09:20:49;10.90;;;4.68;;
24389;SDS011;12510;56.468;-3.004;2023-04-04T09:23:17;10.13;;;6.78;;
24389;SDS011;12510;56.468;-3.004;2023-04-04T09:25:46;6.67;;;4.90;;
24389;SDS011;12510;56.468;-3.004;2023-04-04T09:28:17;6.55;;;4.97;;
24389;SDS011;12510;56.468;-3.004;2023-04-04T09:31:02;10.10;;;6.03;;
24389;SDS011;12510;56.468;-3.004;2023-04-04T09:33:32;15.85;;;8.25;;
24389;SDS011;12510;56.468;-3.004;2023-04-04T09:36:17;11.30;;;7.75;;
24389;SDS011;12510;56.468;-3.004;2023-04-04T09:38:43;11.40;;;10.02;;
24389;SDS011;12510;56.468;-3.004;2023-04-04T09:41:14;19.23;;;7.50;;
24389;SDS011;12510;56.468;-3.004;2023-04-04T09:43:43;8.43;;;5.68;;
24389;SDS011;12510;56.468;-3.004;2023-04-04T09:46:10;12.30;;;5.93;;
24389;SDS011;12510;56.468;-3.004;2023-04-04T09:48:36;7.05;;;5.57;;
24389;SDS011;12510;56.468;-3.004;2023-04-04T09:51:03;10.07;;;5.90;;
24389;SDS011;12510;56.468;-3.004;2023-04-04T09:53:34;17.27;;;6.95;;
24389;SDS011;12510;56.468;-3.004;2023-04-04T09:56:07;7.00;;;5.78;;
24389;SDS011;12510;56.468;-3.004;2023-04-04T09:58:34;7.82;;;6.15;;
24389;SDS011;12510;56.468;-3.004;2023-04-04T10:01:02;11.55;;;7.53;;
24389;SDS011;12510;56.468;-3.004;2023-04-04T10:03:33;12.80;;;6.80;;
24389;SDS011;12510;56.468;-3.004;2023-04-04T10:06:03;10.45;;;6.43;;
24389;SDS011;12510;56.468;-3.004;2023-04-04T10:08:33;11.23;;;5.90;;
24389;SDS011;12510;56.468;-3.004;2023-04-04T10:11:02;10.05;;;5.80;;
24389;SDS011;12510;56.468;-3.004;2023-04-04T10:13:31;15.38;;;6.60;;
24389;SDS011;12510;56.468;-3.004;2023-04-04T10:15:59;11.85;;;6.07;;
24389;SDS011;12510;56.468;-3.004;2023-04-04T10:18:27;18.25;;;8.15;;
24389;SDS011;12510;56.468;-3.004;2023-04-04T10:21:13;9.35;;;6.28;;
24389;SDS011;12510;56.468;-3.004;2023-04-04T10:23:40;14.55;;;7.40;;
24389;SDS011;12510;56.468;-3.004;2023-04-04T10:26:07;8.90;;;6.60;;
24389;SDS011;12510;56.468;-3.004;2023-04-04T10:28:34;8.30;;;5.68;;
24389;SDS011;12510;56.468;-3.004;2023-04-04T10:31:05;13.13;;;7.85;;
24389;SDS011;12510;56.468;-3.004;2023-04-04T10:36:10;11.43;;;6.57;;
24389;SDS011;12510;56.468;-3.004;2023-04-04T10:38:40;8.40;;;6.60;;
24389;SDS011;12510;56.468;-3.004;2023-04-04T10:41:10;14.18;;;7.55;;
24389;SDS011;12510;56.468;-3.004;2023-04-04T10:43:59;10.07;;;7.78;;
24389;SDS011;12510;56.468;-3.004;2023-04-04T10:46:31;16.98;;;8.18;;
24389;SDS011;12510;56.468;-3.004;2023-04-04T10:48:59;12.35;;;8.20;;
24389;SDS011;12510;56.468;-3.004;2023-04-04T10:51:27;10.40;;;7.45;;
24389;SDS011;12510;56.468;-3.004;2023-04-04T10:53:55;10.30;;;8.10;;
24389;SDS011;12510;56.468;-3.004;2023-04-04T10:56:23;13.60;;;8.70;;
24389;SDS011;12510;56.468;-3.004;2023-04-04T10:58:50;12.60;;;8.30;;
24389;SDS011;12510;56.468;-3.004;2023-04-04T11:01:50;11.13;;;8.43;;
24389;SDS011;12510;56.468;-3.004;2023-04-04T11:04:28;8.90;;;7.65;;
24389;SDS011;12510;56.468;-3.004;2023-04-04T11:07:14;9.18;;;8.27;;
24389;SDS011;12510;56.468;-3.004;2023-04-04T11:09:45;16.85;;;8.20;;
24389;SDS011;12510;56.468;-3.004;2023-04-04T11:12:12;8.68;;;7.22;;
24389;SDS011;12510;56.468;-3.004;2023-04-04T11:14:55;17.05;;;11.48;;
24389;SDS011;12510;56.468;-3.004;2023-04-04T11:20:19;9.75;;;7.65;;
24389;SDS011;12510;56.468;-3.004;2023-04-04T11:27:53;12.25;;;7.80;;
24389;SDS011;12510;56.468;-3.004;2023-04-04T11:30:21;9.23;;;7.32;;
24389;SDS011;12510;56.468;-3.004;2023-04-04T11:32:48;9.02;;;7.88;;
24389;SDS011;12510;56.468;-3.004;2023-04-04T11:35:15;12.38;;;8.35;;
24389;SDS011;12510;56.468;-3.004;2023-04-04T11:38:01;11.93;;;6.68;;
24389;SDS011;12510;56.468;-3.004;2023-04-04T11:40:33;10.20;;;6.00;;
24389;SDS011;12510;56.468;-3.004;2023-04-04T11:43:10;7.25;;;5.75;;
24389;SDS011;12510;56.468;-3.004;2023-04-04T11:45:42;21.92;;;8.00;;
24389;SDS011;12510;56.468;-3.004;2023-04-04T11:48:09;13.35;;;7.88;;
24389;SDS011;12510;56.468;-3.004;2023-04-04T11:50:38;8.23;;;6.68;;
24389;SDS011;12510;56.468;-3.004;2023-04-04T11:53:06;10.27;;;7.05;;
24389;SDS011;12510;56.468;-3.004;2023-04-04T11:55:37;10.95;;;6.25;;
24389;SDS011;12510;56.468;-3.004;2023-04-04T11:58:08;7.05;;;6.32;;
24389;SDS011;12510;56.468;-3.004;2023-04-04T12:03:21;21.75;;;8.77;;
24389;SDS011;12510;56.468;-3.004;2023-04-04T12:05:48;10.02;;;6.75;;
24389;SDS011;12510;56.468;-3.004;2023-04-04T12:08:15;13.48;;;6.75;;
24389;SDS011;12510;56.468;-3.004;2023-04-04T12:10:42;18.63;;;6.85;;
24389;SDS011;12510;56.468;-3.004;2023-04-04T12:13:10;12.77;;;7.28;;
24389;SDS011;12510;56.468;-3.004;2023-04-04T12:15:37;9.55;;;6.65;;
24389;SDS011;12510;56.468;-3.004;2023-04-04T12:18:07;8.55;;;6.55;;
24389;SDS011;12510;56.468;-3.004;2023-04-04T12:20:37;23.65;;;9.20;;
24389;SDS011;12510;56.468;-3.004;2023-04-04T12:23:06;10.20;;;6.95;;
24389;SDS011;12510;56.468;-3.004;2023-04-04T12:25:32;15.10;;;6.95;;
24389;SDS011;12510;56.468;-3.004;2023-04-04T12:27:59;10.25;;;6.55;;
24389;SDS011;12510;56.468;-3.004;2023-04-04T12:30:29;10.55;;;6.75;;
24389;SDS011;12510;56.468;-3.004;2023-04-04T12:33:34;11.10;;;7.00;;
24389;SDS011;12510;56.468;-3.004;2023-04-04T12:36:19;11.02;;;6.82;;
24389;SDS011;12510;56.468;-3.004;2023-04-04T12:38:56;10.60;;;6.22;;
24389;SDS011;12510;56.468;-3.004;2023-04-04T12:41:27;15.68;;;6.82;;
24389;SDS011;12510;56.468;-3.004;2023-04-04T12:44:04;7.72;;;6.80;;
24389;SDS011;12510;56.468;-3.004;2023-04-04T12:46:35;11.68;;;6.15;;
24389;SDS011;12510;56.468;-3.004;2023-04-04T12:49:05;15.15;;;6.97;;
24389;SDS011;12510;56.468;-3.004;2023-04-04T12:51:35;18.02;;;7.53;;
24389;SDS011;12510;56.468;-3.004;2023-04-04T12:54:03;11.00;;;7.07;;
24389;SDS011;12510;56.468;-3.004;2023-04-04T12:56:31;7.90;;;6.35;;
24389;SDS011;12510;56.468;-3.004;2023-04-04T12:59:00;18.48;;;7.20;;
24389;SDS011;12510;56.468;-3.004;2023-04-04T13:01:28;13.38;;;7.10;;
24389;SDS011;12510;56.468;-3.004;2023-04-04T13:03:58;11.27;;;6.97;;
24389;SDS011;12510;56.468;-3.004;2023-04-04T13:06:27;6.53;;;5.85;;
24389;SDS011;12510;56.468;-3.004;2023-04-04T13:08:55;8.27;;;6.00;;
24389;SDS011;12510;56.468;-3.004;2023-04-04T13:11:22;18.42;;;6.82;;
24389;SDS011;12510;56.468;-3.004;2023-04-04T13:14:02;8.38;;;6.13;;
24389;SDS011;12510;56.468;-3.004;2023-04-04T13:18:56;20.40;;;8.63;;
24389;SDS011;12510;56.468;-3.004;2023-04-04T13:21:23;9.85;;;6.32;;
24389;SDS011;12510;56.468;-3.004;2023-04-04T13:23:51;14.18;;;7.28;;
24389;SDS011;12510;56.468;-3.004;2023-04-04T13:26:17;9.27;;;6.25;;
24389;SDS011;12510;56.468;-3.004;2023-04-04T13:28:43;31.27;;;8.55;;
24389;SDS011;12510;56.468;-3.004;2023-04-04T13:31:10;10.55;;;6.40;;
24389;SDS011;12510;56.468;-3.004;2023-04-04T13:33:37;12.73;;;7.32;;
24389;SDS011;12510;56.468;-3.004;2023-04-04T13:36:05;12.32;;;7.47;;
24389;SDS011;12510;56.468;-3.004;2023-04-04T13:38:31;10.25;;;6.95;;
24389;SDS011;12510;56.468;-3.004;2023-04-04T13:40:58;13.48;;;6.90;;
24389;SDS011;12510;56.468;-3.004;2023-04-04T13:43:25;8.35;;;6.13;;
24389;SDS011;12510;56.468;-3.004;2023-04-04T13:45:52;8.90;;;6.20;;
24389;SDS011;12510;56.468;-3.004;2023-04-04T13:48:20;9.05;;;6.38;;
24389;SDS011;12510;56.468;-3.004;2023-04-04T13:50:46;9.40;;;5.93;;
24389;SDS011;12510;56.468;-3.004;2023-04-04T13:53:16;11.80;;;6.78;;
24389;SDS011;12510;56.468;-3.004;2023-04-04T13:55:43;11.73;;;6.63;;
24389;SDS011;12510;56.468;-3.004;2023-04-04T13:58:09;9.50;;;6.20;;
24389;SDS011;12510;56.468;-3.004;2023-04-04T14:00:36;6.53;;;5.82;;
24389;SDS011;12510;56.468;-3.004;2023-04-04T14:03:03;9.77;;;5.90;;
24389;SDS011;12510;56.468;-3.004;2023-04-04T14:05:29;11.43;;;5.45;;
24389;SDS011;12510;56.468;-3.004;2023-04-04T14:07:56;10.73;;;5.45;;
24389;SDS011;12510;56.468;-3.004;2023-04-04T14:10:22;8.65;;;5.38;;
24389;SDS011;12510;56.468;-3.004;2023-04-04T14:12:49;5.28;;;4.55;;
24389;SDS011;12510;56.468;-3.004;2023-04-04T14:15:15;11.52;;;5.68;;
24389;SDS011;12510;56.468;-3.004;2023-04-04T14:17:42;9.75;;;5.28;;
24389;SDS011;12510;56.468;-3.004;2023-04-04T14:20:08;7.20;;;5.25;;
24389;SDS011;12510;56.468;-3.004;2023-04-04T14:22:35;10.20;;;5.55;;
24389;SDS011;12510;56.468;-3.004;2023-04-04T14:25:02;14.18;;;5.57;;
24389;SDS011;12510;56.468;-3.004;2023-04-04T14:27:30;8.13;;;5.55;;
24389;SDS011;12510;56.468;-3.004;2023-04-04T14:29:56;10.85;;;6.05;;
24389;SDS011;12510;56.468;-3.004;2023-04-04T14:32:23;7.20;;;5.00;;
24389;SDS011;12510;56.468;-3.004;2023-04-04T14:34:50;7.22;;;5.25;;
24389;SDS011;12510;56.468;-3.004;2023-04-04T14:37:16;12.93;;;6.10;;
24389;SDS011;12510;56.468;-3.004;2023-04-04T14:39:43;7.88;;;5.43;;
24389;SDS011;12510;56.468;-3.004;2023-04-04T14:42:10;11.25;;;5.75;;
24389;SDS011;12510;56.468;-3.004;2023-04-04T14:44:36;11.88;;;5.32;;
24389;SDS011;12510;56.468;-3.004;2023-04-04T14:47:02;9.82;;;4.93;;
24389;SDS011;12510;56.468;-3.004;2023-04-04T14:49:29;7.95;;;5.20;;
24389;SDS011;12510;56.468;-3.004;2023-04-04T14:51:55;5.93;;;5.22;;
24389;SDS011;12510;56.468;-3.004;2023-04-04T14:54:40;8.80;;;5.45;;
24389;SDS011;12510;56.468;-3.004;2023-04-04T14:57:07;11.82;;;5.95;;
24389;SDS011;12510;56.468;-3.004;2023-04-04T14:59:33;13.13;;;5.68;;
24389;SDS011;12510;56.468;-3.004;2023-04-04T15:02:00;8.65;;;5.10;;
24389;SDS011;12510;56.468;-3.004;2023-04-04T15:04:26;8.82;;;4.90;;
24389;SDS011;12510;56.468;-3.004;2023-04-04T15:06:53;6.55;;;4.88;;
24389;SDS011;12510;56.468;-3.004;2023-04-04T15:09:21;13.55;;;5.63;;
24389;SDS011;12510;56.468;-3.004;2023-04-04T15:11:48;7.10;;;4.63;;
24389;SDS011;12510;56.468;-3.004;2023-04-04T15:14:15;7.35;;;4.20;;
24389;SDS011;12510;56.468;-3.004;2023-04-04T15:20:20;8.70;;;4.65;;
24389;SDS011;12510;56.468;-3.004;2023-04-04T15:26:53;7.75;;;4.20;;
24389;SDS011;12510;56.468;-3.004;2023-04-04T15:29:19;6.20;;;3.50;;
24389;SDS011;12510;56.468;-3.004;2023-04-04T15:31:46;5.13;;;3.60;;
24389;SDS011;12510;56.468;-3.004;2023-04-04T15:34:12;5.85;;;3.75;;
24389;SDS011;12510;56.468;-3.004;2023-04-04T15:36:39;6.47;;;3.58;;
24389;SDS011;12510;56.468;-3.004;2023-04-04T15:39:08;8.85;;;4.53;;
24389;SDS011;12510;56.468;-3.004;2023-04-04T15:41:36;6.63;;;4.78;;
24389;SDS011;12510;56.468;-3.004;2023-04-04T15:44:03;7.18;;;4.10;;
24389;SDS011;12510;56.468;-3.004;2023-04-04T15:46:30;11.80;;;5.07;;
24389;SDS011;12510;56.468;-3.004;2023-04-04T15:51:43;8.52;;;5.15;;
24389;SDS011;12510;56.468;-3.004;2023-04-04T15:54:11;7.10;;;4.25;;
24389;SDS011;12510;56.468;-3.004;2023-04-04T15:56:37;9.48;;;4.85;;
24389;SDS011;12510;56.468;-3.004;2023-04-04T15:59:04;12.15;;;5.55;;
24389;SDS011;12510;56.468;-3.004;2023-04-04T16:01:31;9.65;;;4.63;;
24389;SDS011;12510;56.468;-3.004;2023-04-04T16:03:59;7.25;;;4.07;;
24389;SDS011;12510;56.468;-3.004;2023-04-04T16:11:05;8.60;;;4.57;;
24389;SDS011;12510;56.468;-3.004;2023-04-04T16:14:18;5.50;;;4.30;;
24389;SDS011;12510;56.468;-3.004;2023-04-04T16:16:57;9.15;;;4.00;;
24389;SDS011;12510;56.468;-3.004;2023-04-04T16:19:52;7.70;;;4.13;;
24389;SDS011;12510;56.468;-3.004;2023-04-04T16:22:47;12.88;;;4.72;;
24389;SDS011;12510;56.468;-3.004;2023-04-04T16:25:28;12.05;;;4.55;;
24389;SDS011;12510;56.468;-3.004;2023-04-04T16:28:12;7.03;;;4.35;;
24389;SDS011;12510;56.468;-3.004;2023-04-04T16:30:38;10.13;;;4.53;;
24389;SDS011;12510;56.468;-3.004;2023-04-04T16:35:50;5.85;;;4.07;;
24389;SDS011;12510;56.468;-3.004;2023-04-04T16:38:18;7.85;;;4.75;;
24389;SDS011;12510;56.468;-3.004;2023-04-04T16:40:59;7.80;;;5.00;;
24389;SDS011;12510;56.468;-3.004;2023-04-04T16:43:36;9.13;;;4.68;;
24389;SDS011;12510;56.468;-3.004;2023-04-04T16:46:22;8.30;;;5.35;;
24389;SDS011;12510;56.468;-3.004;2023-04-04T16:49:07;8.90;;;5.13;;
24389;SDS011;12510;56.468;-3.004;2023-04-04T16:52:01;10.07;;;4.85;;
24389;SDS011;12510;56.468;-3.004;2023-04-04T17:01:50;8.10;;;5.35;;
24389;SDS011;12510;56.468;-3.004;2023-04-04T17:04:17;9.88;;;5.07;;
24389;SDS011;12510;56.468;-3.004;2023-04-04T17:06:44;5.72;;;4.30;;
24389;SDS011;12510;56.468;-3.004;2023-04-04T17:09:12;7.70;;;5.22;;
24389;SDS011;12510;56.468;-3.004;2023-04-04T17:11:38;11.93;;;5.47;;
24389;SDS011;12510;56.468;-3.004;2023-04-04T17:14:09;8.30;;;4.53;;
24389;SDS011;12510;56.468;-3.004;2023-04-04T17:16:36;9.85;;;5.10;;
24389;SDS011;12510;56.468;-3.004;2023-04-04T17:19:03;9.40;;;5.45;;
24389;SDS011;12510;56.468;-3.004;2023-04-04T17:21:30;9.40;;;4.82;;
24389;SDS011;12510;56.468;-3.004;2023-04-04T17:27:49;6.28;;;4.55;;
24389;SDS011;12510;56.468;-3.004;2023-04-04T17:30:16;7.97;;;5.18;;
24389;SDS011;12510;56.468;-3.004;2023-04-04T17:32:42;11.85;;;4.97;;
24389;SDS011;12510;56.468;-3.004;2023-04-04T17:35:08;11.35;;;5.13;;
24389;SDS011;12510;56.468;-3.004;2023-04-04T17:37:35;9.13;;;5.65;;
24389;SDS011;12510;56.468;-3.004;2023-04-04T17:40:01;9.43;;;5.20;;
24389;SDS011;12510;56.468;-3.004;2023-04-04T17:42:30;8.25;;;4.70;;
24389;SDS011;12510;56.468;-3.004;2023-04-04T17:44:56;7.55;;;4.75;;
24389;SDS011;12510;56.468;-3.004;2023-04-04T17:47:23;7.57;;;4.72;;
24389;SDS011;12510;56.468;-3.004;2023-04-04T17:49:49;7.97;;;4.78;;
24389;SDS011;12510;56.468;-3.004;2023-04-04T17:52:17;8.77;;;4.82;;
24389;SDS011;12510;56.468;-3.004;2023-04-04T17:54:46;9.38;;;5.10;;
24389;SDS011;12510;56.468;-3.004;2023-04-04T17:57:13;10.13;;;5.40;;
24389;SDS011;12510;56.468;-3.004;2023-04-04T17:59:40;5.50;;;4.18;;
24389;SDS011;12510;56.468;-3.004;2023-04-04T18:02:06;6.57;;;3.70;;
24389;SDS011;12510;56.468;-3.004;2023-04-04T18:04:33;6.75;;;4.10;;
24389;SDS011;12510;56.468;-3.004;2023-04-04T18:06:59;9.88;;;3.67;;
24389;SDS011;12510;56.468;-3.004;2023-04-04T18:09:26;6.28;;;3.67;;
24389;SDS011;12510;56.468;-3.004;2023-04-04T18:11:53;8.15;;;4.00;;
24389;SDS011;12510;56.468;-3.004;2023-04-04T18:14:20;6.68;;;3.67;;
24389;SDS011;12510;56.468;-3.004;2023-04-04T18:16:47;7.10;;;3.85;;
24389;SDS011;12510;56.468;-3.004;2023-04-04T18:19:13;8.32;;;3.45;;
24389;SDS011;12510;56.468;-3.004;2023-04-04T18:21:39;8.48;;;3.85;;
24389;SDS011;12510;56.468;-3.004;2023-04-04T18:24:06;6.95;;;3.25;;
24389;SDS011;12510;56.468;-3.004;2023-04-04T18:26:35;5.15;;;3.15;;
24389;SDS011;12510;56.468;-3.004;2023-04-04T18:29:02;3.67;;;2.88;;
24389;SDS011;12510;56.468;-3.004;2023-04-04T18:31:28;7.82;;;3.05;;
24389;SDS011;12510;56.468;-3.004;2023-04-04T18:33:55;7.63;;;3.00;;
24389;SDS011;12510;56.468;-3.004;2023-04-04T18:36:21;6.20;;;3.10;;
24389;SDS011;12510;56.468;-3.004;2023-04-04T18:38:48;9.30;;;3.90;;
24389;SDS011;12510;56.468;-3.004;2023-04-04T18:41:15;7.03;;;2.95;;
24389;SDS011;12510;56.468;-3.004;2023-04-04T18:43:42;5.25;;;3.15;;
24389;SDS011;12510;56.468;-3.004;2023-04-04T18:46:08;5.78;;;3.00;;
24389;SDS011;12510;56.468;-3.004;2023-04-04T18:48:35;5.00;;;2.83;;
24389;SDS011;12510;56.468;-3.004;2023-04-04T18:51:01;7.30;;;3.53;;
24389;SDS011;12510;56.468;-3.004;2023-04-04T18:53:28;7.80;;;3.65;;
24389;SDS011;12510;56.468;-3.004;2023-04-04T18:55:55;6.72;;;3.30;;
24389;SDS011;12510;56.468;-3.004;2023-04-04T18:58:23;9.18;;;4.00;;
24389;SDS011;12510;56.468;-3.004;2023-04-04T19:00:51;7.00;;;4.25;;